sensor_id;sensor_type;location;lat;lon;timestamp;P1;P2;P0
76304;PMS7003;65111;50.536;19.204;2023-04-25T00:01:46;0.00;0.00;0.00
76304;PMS7003;65111;50.536;19.204;2023-04-25T00:04:12;1.00;0.00;0.00
76304;PMS7003;65111;50.536;19.204;2023-04-25T00:06:38;0.00;0.00;0.00
76304;PMS7003;65111;50.536;19.204;2023-04-25T00:09:05;0.00;0.00;0.00
76304;PMS7003;65111;50.536;19.204;2023-04-25T00:11:36;0.00;0.00;0.00
76304;PMS7003;65111;50.536;19.204;2023-04-25T00:14:03;0.00;0.00;0.00
76304;PMS7003;65111;50.536;19.204;2023-04-25T00:16:30;0.00;0.00;0.00
76304;PMS7003;65111;50.536;19.204;2023-04-25T00:18:59;0.00;0.00;0.00
76304;PMS7003;65111;50.536;19.204;2023-04-25T00:21:26;0.50;0.50;0.00
76304;PMS7003;65111;50.536;19.204;2023-04-25T00:23:54;1.00;0.00;0.00
76304;PMS7003;65111;50.536;19.204;2023-04-25T00:26:20;0.00;0.00;0.00
76304;PMS7003;65111;50.536;19.204;2023-04-25T00:28:47;0.50;0.50;0.00
76304;PMS7003;65111;50.536;19.204;2023-04-25T00:31:13;0.00;0.00;0.00
76304;PMS7003;65111;50.536;19.204;2023-04-25T00:33:40;0.00;0.00;0.00
76304;PMS7003;65111;50.536;19.204;2023-04-25T00:36:06;1.00;0.00;0.00
76304;PMS7003;65111;50.536;19.204;2023-04-25T00:38:33;0.33;0.00;0.00
76304;PMS7003;65111;50.536;19.204;2023-04-25T00:40:59;1.00;1.00;0.67
76304;PMS7003;65111;50.536;19.204;2023-04-25T00:43:25;1.00;1.00;1.00
76304;PMS7003;65111;50.536;19.204;2023-04-25T00:45:52;2.00;0.00;0.00
76304;PMS7003;65111;50.536;19.204;2023-04-25T00:48:20;0.00;0.00;0.00
76304;PMS7003;65111;50.536;19.204;2023-04-25T00:50:55;1.00;1.00;0.67
76304;PMS7003;65111;50.536;19.204;2023-04-25T00:53:27;0.00;0.00;0.00
76304;PMS7003;65111;50.536;19.204;2023-04-25T00:55:53;1.00;1.00;1.00
76304;PMS7003;65111;50.536;19.204;2023-04-25T00:58:20;0.00;0.00;0.00
76304;PMS7003;65111;50.536;19.204;2023-04-25T01:00:48;0.00;0.00;0.00
76304;PMS7003;65111;50.536;19.204;2023-04-25T01:03:16;2.00;2.00;1.00
76304;PMS7003;65111;50.536;19.204;2023-04-25T01:05:45;2.00;1.00;1.00
76304;PMS7003;65111;50.536;19.204;2023-04-25T01:08:12;1.00;1.00;1.00
76304;PMS7003;65111;50.536;19.204;2023-04-25T01:10:39;0.67;0.67;0.67
76304;PMS7003;65111;50.536;19.204;2023-04-25T01:13:06;4.50;2.00;2.00
76304;PMS7003;65111;50.536;19.204;2023-04-25T01:15:33;2.00;2.00;1.00
76304;PMS7003;65111;50.536;19.204;2023-04-25T01:18:00;2.00;1.00;0.33
76304;PMS7003;65111;50.536;19.204;2023-04-25T01:20:27;2.00;2.00;2.00
76304;PMS7003;65111;50.536;19.204;2023-04-25T01:22:54;4.00;2.00;2.00
76304;PMS7003;65111;50.536;19.204;2023-04-25T01:25:21;2.00;2.00;1.00
76304;PMS7003;65111;50.536;19.204;2023-04-25T01:27:48;6.00;5.00;2.00
76304;PMS7003;65111;50.536;19.204;2023-04-25T01:30:14;4.00;1.67;1.00
76304;PMS7003;65111;50.536;19.204;2023-04-25T01:32:41;5.00;3.33;1.67
76304;PMS7003;65111;50.536;19.204;2023-04-25T01:35:09;2.00;2.00;2.00
76304;PMS7003;65111;50.536;19.204;2023-04-25T01:37:37;5.00;5.00;2.00
76304;PMS7003;65111;50.536;19.204;2023-04-25T01:40:07;6.00;4.00;2.00
76304;PMS7003;65111;50.536;19.204;2023-04-25T01:42:36;3.00;3.00;2.00
76304;PMS7003;65111;50.536;19.204;2023-04-25T01:45:04;8.50;4.00;2.00
76304;PMS7003;65111;50.536;19.204;2023-04-25T01:47:31;5.00;5.00;3.00
76304;PMS7003;65111;50.536;19.204;2023-04-25T01:49:57;4.00;1.33;1.00
76304;PMS7003;65111;50.536;19.204;2023-04-25T01:52:23;2.00;2.00;2.00
76304;PMS7003;65111;50.536;19.204;2023-04-25T01:54:49;4.00;4.00;3.33
76304;PMS7003;65111;50.536;19.204;2023-04-25T01:57:16;5.00;4.50;3.00
76304;PMS7003;65111;50.536;19.204;2023-04-25T01:59:43;4.00;4.00;2.00
76304;PMS7003;65111;50.536;19.204;2023-04-25T02:02:09;5.33;5.00;3.33
76304;PMS7003;65111;50.536;19.204;2023-04-25T02:04:35;4.00;4.00;1.33
76304;PMS7003;65111;50.536;19.204;2023-04-25T02:07:01;4.00;4.00;1.50
76304;PMS7003;65111;50.536;19.204;2023-04-25T02:09:28;2.00;2.00;1.00
76304;PMS7003;65111;50.536;19.204;2023-04-25T02:11:54;4.00;4.00;0.00
76304;PMS7003;65111;50.536;19.204;2023-04-25T02:14:20;5.50;4.50;4.00
76304;PMS7003;65111;50.536;19.204;2023-04-25T02:16:46;5.50;4.00;4.00
76304;PMS7003;65111;50.536;19.204;2023-04-25T02:19:12;7.33;5.00;4.67
76304;PMS7003;65111;50.536;19.204;2023-04-25T02:21:38;6.00;5.00;4.00
76304;PMS7003;65111;50.536;19.204;2023-04-25T02:24:04;5.00;5.00;4.00
76304;PMS7003;65111;50.536;19.204;2023-04-25T02:26:31;8.00;6.50;4.00
76304;PMS7003;65111;50.536;19.204;2023-04-25T02:28:57;4.00;4.00;2.67
76304;PMS7003;65111;50.536;19.204;2023-04-25T02:31:23;5.00;4.00;3.00
76304;PMS7003;65111;50.536;19.204;2023-04-25T02:33:49;4.00;4.00;2.00
76304;PMS7003;65111;50.536;19.204;2023-04-25T02:36:14;2.00;2.00;2.00
76304;PMS7003;65111;50.536;19.204;2023-04-25T02:38:41;4.67;4.67;3.33
76304;PMS7003;65111;50.536;19.204;2023-04-25T02:41:07;1.00;1.00;1.00
76304;PMS7003;65111;50.536;19.204;2023-04-25T02:43:33;2.00;1.00;1.00
76304;PMS7003;65111;50.536;19.204;2023-04-25T02:45:59;3.00;1.00;1.33
76304;PMS7003;65111;50.536;19.204;2023-04-25T02:48:25;5.00;5.00;4.00
76304;PMS7003;65111;50.536;19.204;2023-04-25T02:50:51;3.00;3.00;2.00
76304;PMS7003;65111;50.536;19.204;2023-04-25T02:53:17;4.50;4.50;2.00
76304;PMS7003;65111;50.536;19.204;2023-04-25T02:55:43;4.00;4.00;2.00
76304;PMS7003;65111;50.536;19.204;2023-04-25T02:58:09;4.00;4.00;4.00
76304;PMS7003;65111;50.536;19.204;2023-04-25T03:00:35;5.00;4.00;2.00
76304;PMS7003;65111;50.536;19.204;2023-04-25T03:03:01;1.50;1.00;1.00
76304;PMS7003;65111;50.536;19.204;2023-04-25T03:05:27;1.00;1.00;0.00
76304;PMS7003;65111;50.536;19.204;2023-04-25T03:07:53;2.00;2.00;1.50
76304;PMS7003;65111;50.536;19.204;2023-04-25T03:10:19;1.00;1.00;1.00
76304;PMS7003;65111;50.536;19.204;2023-04-25T03:12:45;4.50;2.00;2.00
76304;PMS7003;65111;50.536;19.204;2023-04-25T03:15:11;7.50;3.00;2.00
76304;PMS7003;65111;50.536;19.204;2023-04-25T03:17:37;5.67;5.67;2.00
76304;PMS7003;65111;50.536;19.204;2023-04-25T03:20:03;2.00;2.00;1.00
76304;PMS7003;65111;50.536;19.204;2023-04-25T03:22:30;5.00;4.00;2.00
76304;PMS7003;65111;50.536;19.204;2023-04-25T03:24:56;6.00;2.00;2.00
76304;PMS7003;65111;50.536;19.204;2023-04-25T03:27:22;4.00;4.00;2.00
76304;PMS7003;65111;50.536;19.204;2023-04-25T03:29:48;4.00;2.00;2.00
76304;PMS7003;65111;50.536;19.204;2023-04-25T03:32:14;2.00;2.00;0.50
76304;PMS7003;65111;50.536;19.204;2023-04-25T03:34:40;6.33;1.67;1.33
76304;PMS7003;65111;50.536;19.204;2023-04-25T03:37:06;2.00;2.00;1.00
76304;PMS7003;65111;50.536;19.204;2023-04-25T03:39:32;2.00;1.00;1.00
76304;PMS7003;65111;50.536;19.204;2023-04-25T03:41:58;4.50;3.00;2.00
76304;PMS7003;65111;50.536;19.204;2023-04-25T03:44:24;3.00;2.00;1.33
76304;PMS7003;65111;50.536;19.204;2023-04-25T03:46:50;1.00;1.00;1.00
76304;PMS7003;65111;50.536;19.204;2023-04-25T03:49:16;1.00;1.00;1.00
76304;PMS7003;65111;50.536;19.204;2023-04-25T03:51:42;2.00;2.00;2.00
76304;PMS7003;65111;50.536;19.204;2023-04-25T03:54:08;4.00;1.00;1.00
76304;PMS7003;65111;50.536;19.204;2023-04-25T03:56:34;1.00;1.00;1.00
76304;PMS7003;65111;50.536;19.204;2023-04-25T03:59:00;0.00;0.00;0.00
76304;PMS7003;65111;50.536;19.204;2023-04-25T04:01:26;1.50;1.50;1.00
76304;PMS7003;65111;50.536;19.204;2023-04-25T04:03:52;4.00;1.00;1.00
76304;PMS7003;65111;50.536;19.204;2023-04-25T04:06:18;1.00;1.00;1.00
76304;PMS7003;65111;50.536;19.204;2023-04-25T04:08:46;1.00;1.00;1.00
76304;PMS7003;65111;50.536;19.204;2023-04-25T04:11:12;1.00;1.00;0.50
76304;PMS7003;65111;50.536;19.204;2023-04-25T04:13:38;1.50;0.50;0.00
76304;PMS7003;65111;50.536;19.204;2023-04-25T04:16:04;0.00;0.00;0.00
76304;PMS7003;65111;50.536;19.204;2023-04-25T04:18:30;0.50;0.50;0.50
76304;PMS7003;65111;50.536;19.204;2023-04-25T04:20:58;4.00;2.00;2.00
76304;PMS7003;65111;50.536;19.204;2023-04-25T04:23:25;1.00;1.00;1.00
76304;PMS7003;65111;50.536;19.204;2023-04-25T04:25:52;2.00;2.00;2.00
76304;PMS7003;65111;50.536;19.204;2023-04-25T04:28:19;2.00;1.00;0.00
76304;PMS7003;65111;50.536;19.204;2023-04-25T04:30:46;1.00;0.00;0.00
76304;PMS7003;65111;50.536;19.204;2023-04-25T04:33:11;0.00;0.00;0.00
76304;PMS7003;65111;50.536;19.204;2023-04-25T04:35:38;0.00;0.00;0.00
76304;PMS7003;65111;50.536;19.204;2023-04-25T04:38:04;0.33;0.00;0.00
76304;PMS7003;65111;50.536;19.204;2023-04-25T04:40:29;1.00;1.00;1.00
76304;PMS7003;65111;50.536;19.204;2023-04-25T04:42:56;1.00;1.00;1.00
76304;PMS7003;65111;50.536;19.204;2023-04-25T04:45:23;2.00;1.00;0.00
76304;PMS7003;65111;50.536;19.204;2023-04-25T04:47:49;2.00;1.00;1.00
76304;PMS7003;65111;50.536;19.204;2023-04-25T04:50:15;2.00;1.00;1.00
76304;PMS7003;65111;50.536;19.204;2023-04-25T04:52:42;1.00;1.00;0.67
76304;PMS7003;65111;50.536;19.204;2023-04-25T04:55:08;1.00;1.00;1.00
76304;PMS7003;65111;50.536;19.204;2023-04-25T04:57:34;1.67;1.00;1.00
76304;PMS7003;65111;50.536;19.204;2023-04-25T05:00:01;4.00;1.00;1.00
76304;PMS7003;65111;50.536;19.204;2023-04-25T05:02:30;0.50;0.50;0.00
76304;PMS7003;65111;50.536;19.204;2023-04-25T05:04:56;1.50;1.00;0.00
76304;PMS7003;65111;50.536;19.204;2023-04-25T05:07:22;1.00;1.00;0.00
76304;PMS7003;65111;50.536;19.204;2023-04-25T05:09:48;1.00;1.00;1.00
76304;PMS7003;65111;50.536;19.204;2023-04-25T05:12:14;1.67;1.67;1.00
76304;PMS7003;65111;50.536;19.204;2023-04-25T05:14:40;0.67;0.67;0.00
76304;PMS7003;65111;50.536;19.204;2023-04-25T05:17:06;2.00;2.00;1.00
76304;PMS7003;65111;50.536;19.204;2023-04-25T05:19:34;1.00;1.00;1.00
76304;PMS7003;65111;50.536;19.204;2023-04-25T05:22:00;2.00;0.67;1.00
76304;PMS7003;65111;50.536;19.204;2023-04-25T05:24:26;3.50;2.00;1.00
76304;PMS7003;65111;50.536;19.204;2023-04-25T05:26:52;0.00;0.00;0.00
76304;PMS7003;65111;50.536;19.204;2023-04-25T05:29:18;1.33;1.33;1.00
76304;PMS7003;65111;50.536;19.204;2023-04-25T05:31:44;1.67;1.00;0.67
76304;PMS7003;65111;50.536;19.204;2023-04-25T05:34:10;7.00;4.67;4.00
76304;PMS7003;65111;50.536;19.204;2023-04-25T05:36:36;13.00;11.00;7.00
76304;PMS7003;65111;50.536;19.204;2023-04-25T05:39:02;21.00;15.00;8.00
76304;PMS7003;65111;50.536;19.204;2023-04-25T05:41:29;26.67;24.67;14.67
76304;PMS7003;65111;50.536;19.204;2023-04-25T05:43:55;22.50;21.00;14.50
76304;PMS7003;65111;50.536;19.204;2023-04-25T05:46:21;17.50;15.00;9.00
76304;PMS7003;65111;50.536;19.204;2023-04-25T05:48:47;13.00;12.00;8.00
76304;PMS7003;65111;50.536;19.204;2023-04-25T05:51:13;7.00;7.00;5.50
76304;PMS7003;65111;50.536;19.204;2023-04-25T05:53:39;7.50;7.50;6.00
76304;PMS7003;65111;50.536;19.204;2023-04-25T05:56:05;5.00;5.00;4.00
76304;PMS7003;65111;50.536;19.204;2023-04-25T05:58:31;5.00;2.00;2.00
76304;PMS7003;65111;50.536;19.204;2023-04-25T06:00:57;2.00;2.00;1.33
76304;PMS7003;65111;50.536;19.204;2023-04-25T06:03:23;2.00;2.00;2.00
76304;PMS7003;65111;50.536;19.204;2023-04-25T06:05:49;1.00;0.00;0.00
76304;PMS7003;65111;50.536;19.204;2023-04-25T06:08:15;4.00;2.00;1.33
76304;PMS7003;65111;50.536;19.204;2023-04-25T06:10:42;1.00;1.00;1.00
76304;PMS7003;65111;50.536;19.204;2023-04-25T06:13:08;1.33;1.33;1.00
76304;PMS7003;65111;50.536;19.204;2023-04-25T06:15:34;0.50;0.50;0.50
76304;PMS7003;65111;50.536;19.204;2023-04-25T06:18:00;1.50;1.00;1.00
76304;PMS7003;65111;50.536;19.204;2023-04-25T06:20:26;1.50;1.00;1.00
76304;PMS7003;65111;50.536;19.204;2023-04-25T06:22:52;1.00;1.00;1.00
76304;PMS7003;65111;50.536;19.204;2023-04-25T06:25:18;2.00;2.00;2.00
76304;PMS7003;65111;50.536;19.204;2023-04-25T06:27:44;4.00;1.00;1.00
76304;PMS7003;65111;50.536;19.204;2023-04-25T06:30:10;1.00;1.00;1.00
76304;PMS7003;65111;50.536;19.204;2023-04-25T06:32:38;4.00;1.50;1.00
76304;PMS7003;65111;50.536;19.204;2023-04-25T06:35:04;2.00;2.00;2.00
76304;PMS7003;65111;50.536;19.204;2023-04-25T06:37:31;2.00;2.00;2.00
76304;PMS7003;65111;50.536;19.204;2023-04-25T06:39:57;3.33;3.33;2.00
76304;PMS7003;65111;50.536;19.204;2023-04-25T06:42:23;4.33;2.33;1.67
76304;PMS7003;65111;50.536;19.204;2023-04-25T06:44:49;1.50;1.50;1.00
76304;PMS7003;65111;50.536;19.204;2023-04-25T06:47:15;3.00;2.00;2.00
76304;PMS7003;65111;50.536;19.204;2023-04-25T06:49:41;2.00;2.00;0.00
76304;PMS7003;65111;50.536;19.204;2023-04-25T06:52:07;2.00;2.00;1.00
76304;PMS7003;65111;50.536;19.204;2023-04-25T06:54:33;2.00;2.00;2.00
76304;PMS7003;65111;50.536;19.204;2023-04-25T06:57:00;1.67;1.67;1.00
76304;PMS7003;65111;50.536;19.204;2023-04-25T06:59:26;1.00;1.00;1.00
76304;PMS7003;65111;50.536;19.204;2023-04-25T07:01:52;5.67;2.00;2.00
76304;PMS7003;65111;50.536;19.204;2023-04-25T07:04:18;2.00;2.00;1.00
76304;PMS7003;65111;50.536;19.204;2023-04-25T07:06:44;2.00;2.00;1.00
76304;PMS7003;65111;50.536;19.204;2023-04-25T07:09:12;2.00;2.00;1.00
76304;PMS7003;65111;50.536;19.204;2023-04-25T07:11:38;2.00;2.00;1.50
76304;PMS7003;65111;50.536;19.204;2023-04-25T07:14:04;1.67;1.00;1.00
76304;PMS7003;65111;50.536;19.204;2023-04-25T07:16:30;2.00;2.00;1.00
76304;PMS7003;65111;50.536;19.204;2023-04-25T07:18:56;1.00;1.00;1.00
76304;PMS7003;65111;50.536;19.204;2023-04-25T07:21:22;1.00;1.00;1.00
76304;PMS7003;65111;50.536;19.204;2023-04-25T07:23:48;1.50;1.50;1.50
76304;PMS7003;65111;50.536;19.204;2023-04-25T07:26:14;2.00;2.00;2.00
76304;PMS7003;65111;50.536;19.204;2023-04-25T07:28:40;2.00;2.00;1.00
76304;PMS7003;65111;50.536;19.204;2023-04-25T07:31:06;2.00;2.00;1.00
76304;PMS7003;65111;50.536;19.204;2023-04-25T07:33:32;4.00;2.50;2.00
76304;PMS7003;65111;50.536;19.204;2023-04-25T07:35:59;4.00;2.00;1.67
76304;PMS7003;65111;50.536;19.204;2023-04-25T07:38:25;5.00;2.33;2.00
76304;PMS7003;65111;50.536;19.204;2023-04-25T07:40:51;4.00;3.00;2.00
76304;PMS7003;65111;50.536;19.204;2023-04-25T07:43:17;2.00;2.00;2.00
76304;PMS7003;65111;50.536;19.204;2023-04-25T07:45:43;2.50;2.50;2.00
76304;PMS7003;65111;50.536;19.204;2023-04-25T07:48:09;2.00;2.00;1.00
76304;PMS7003;65111;50.536;19.204;2023-04-25T07:50:36;3.00;3.00;2.00
76304;PMS7003;65111;50.536;19.204;2023-04-25T07:53:02;5.00;3.00;2.00
76304;PMS7003;65111;50.536;19.204;2023-04-25T07:55:28;3.00;2.33;2.00
76304;PMS7003;65111;50.536;19.204;2023-04-25T07:57:54;5.00;3.00;2.00
76304;PMS7003;65111;50.536;19.204;2023-04-25T08:00:20;3.00;3.00;2.00
76304;PMS7003;65111;50.536;19.204;2023-04-25T08:02:46;5.00;3.00;2.00
76304;PMS7003;65111;50.536;19.204;2023-04-25T08:05:12;1.50;1.00;1.00
76304;PMS7003;65111;50.536;19.204;2023-04-25T08:07:40;5.00;5.00;2.00
76304;PMS7003;65111;50.536;19.204;2023-04-25T08:10:07;5.00;5.00;2.00
76304;PMS7003;65111;50.536;19.204;2023-04-25T08:12:33;3.00;3.00;2.00
76304;PMS7003;65111;50.536;19.204;2023-04-25T08:14:59;2.50;2.00;2.00
76304;PMS7003;65111;50.536;19.204;2023-04-25T08:17:25;3.00;3.00;2.00
76304;PMS7003;65111;50.536;19.204;2023-04-25T08:19:51;2.00;2.00;2.00
76304;PMS7003;65111;50.536;19.204;2023-04-25T08:22:17;1.50;1.50;1.50
76304;PMS7003;65111;50.536;19.204;2023-04-25T08:24:44;2.00;2.00;1.00
76304;PMS7003;65111;50.536;19.204;2023-04-25T08:27:09;2.00;2.00;2.00
76304;PMS7003;65111;50.536;19.204;2023-04-25T08:29:36;1.00;1.00;1.00
76304;PMS7003;65111;50.536;19.204;2023-04-25T08:32:02;1.00;1.00;1.00
76304;PMS7003;65111;50.536;19.204;2023-04-25T08:34:28;2.50;2.00;1.00
76304;PMS7003;65111;50.536;19.204;2023-04-25T08:36:54;2.00;2.00;2.00
76304;PMS7003;65111;50.536;19.204;2023-04-25T08:39:20;1.00;1.00;0.50
76304;PMS7003;65111;50.536;19.204;2023-04-25T08:41:46;3.00;1.00;1.00
76304;PMS7003;65111;50.536;19.204;2023-04-25T08:44:13;3.00;2.00;1.00
76304;PMS7003;65111;50.536;19.204;2023-04-25T08:46:39;1.00;1.00;1.00
76304;PMS7003;65111;50.536;19.204;2023-04-25T08:49:06;3.00;3.00;2.00
76304;PMS7003;65111;50.536;19.204;2023-04-25T08:51:39;2.00;2.00;0.00
76304;PMS7003;65111;50.536;19.204;2023-04-25T08:54:13;1.00;1.00;1.00
76304;PMS7003;65111;50.536;19.204;2023-04-25T08:56:40;3.50;3.00;2.00
76304;PMS7003;65111;50.536;19.204;2023-04-25T08:59:12;4.00;2.00;2.00
76304;PMS7003;65111;50.536;19.204;2023-04-25T09:01:39;2.00;1.50;1.00
76304;PMS7003;65111;50.536;19.204;2023-04-25T09:04:05;4.00;3.00;2.00
76304;PMS7003;65111;50.536;19.204;2023-04-25T09:06:31;2.00;2.00;1.00
76304;PMS7003;65111;50.536;19.204;2023-04-25T09:09:03;1.67;1.67;1.00
76304;PMS7003;65111;50.536;19.204;2023-04-25T09:11:31;2.00;2.00;2.00
76304;PMS7003;65111;50.536;19.204;2023-04-25T09:19:21;3.00;3.00;2.00
76304;PMS7003;65111;50.536;19.204;2023-04-25T09:21:48;2.00;2.00;1.50
76304;PMS7003;65111;50.536;19.204;2023-04-25T09:24:15;1.50;1.50;1.00
76304;PMS7003;65111;50.536;19.204;2023-04-25T09:26:41;2.33;2.33;2.00
76304;PMS7003;65111;50.536;19.204;2023-04-25T09:29:09;2.00;1.00;1.00
76304;PMS7003;65111;50.536;19.204;2023-04-25T09:31:36;3.00;2.00;1.00
76304;PMS7003;65111;50.536;19.204;2023-04-25T09:34:02;2.00;2.00;2.00
76304;PMS7003;65111;50.536;19.204;2023-04-25T09:36:29;1.50;1.50;1.00
76304;PMS7003;65111;50.536;19.204;2023-04-25T09:38:56;2.00;1.50;2.00
76304;PMS7003;65111;50.536;19.204;2023-04-25T09:41:26;2.00;2.00;1.50
76304;PMS7003;65111;50.536;19.204;2023-04-25T09:43:52;3.00;3.00;2.00
76304;PMS7003;65111;50.536;19.204;2023-04-25T09:46:24;2.00;2.00;1.00
76304;PMS7003;65111;50.536;19.204;2023-04-25T09:48:50;1.00;1.00;1.00
76304;PMS7003;65111;50.536;19.204;2023-04-25T09:51:19;1.00;1.00;1.00
76304;PMS7003;65111;50.536;19.204;2023-04-25T09:53:45;1.00;1.00;1.00
76304;PMS7003;65111;50.536;19.204;2023-04-25T09:56:15;2.50;2.50;2.00
76304;PMS7003;65111;50.536;19.204;2023-04-25T09:58:41;2.00;2.00;2.00
76304;PMS7003;65111;50.536;19.204;2023-04-25T10:01:08;1.00;1.00;1.00
76304;PMS7003;65111;50.536;19.204;2023-04-25T10:03:39;1.00;1.00;1.00
76304;PMS7003;65111;50.536;19.204;2023-04-25T10:06:07;1.00;1.00;1.00
76304;PMS7003;65111;50.536;19.204;2023-04-25T10:08:54;2.00;2.00;2.00
76304;PMS7003;65111;50.536;19.204;2023-04-25T10:11:21;1.00;1.00;1.00
76304;PMS7003;65111;50.536;19.204;2023-04-25T10:13:50;3.00;3.00;3.00
76304;PMS7003;65111;50.536;19.204;2023-04-25T10:16:16;2.00;2.00;2.00
76304;PMS7003;65111;50.536;19.204;2023-04-25T10:18:43;3.50;2.50;2.00
76304;PMS7003;65111;50.536;19.204;2023-04-25T10:21:09;2.00;2.00;2.00
76304;PMS7003;65111;50.536;19.204;2023-04-25T10:23:36;1.00;1.00;1.00
76304;PMS7003;65111;50.536;19.204;2023-04-25T10:26:03;2.00;2.00;2.00
76304;PMS7003;65111;50.536;19.204;2023-04-25T10:28:29;2.00;1.50;1.00
76304;PMS7003;65111;50.536;19.204;2023-04-25T10:31:26;2.00;2.00;1.00
76304;PMS7003;65111;50.536;19.204;2023-04-25T10:33:53;2.00;2.00;1.00
76304;PMS7003;65111;50.536;19.204;2023-04-25T10:36:20;1.00;1.00;0.67
76304;PMS7003;65111;50.536;19.204;2023-04-25T10:38:48;2.00;2.00;2.00
76304;PMS7003;65111;50.536;19.204;2023-04-25T10:41:20;2.00;1.00;1.00
76304;PMS7003;65111;50.536;19.204;2023-04-25T10:43:49;1.00;1.00;1.00
76304;PMS7003;65111;50.536;19.204;2023-04-25T10:46:22;1.00;1.00;0.00
76304;PMS7003;65111;50.536;19.204;2023-04-25T10:48:56;2.00;2.00;2.00
76304;PMS7003;65111;50.536;19.204;2023-04-25T10:51:27;1.00;1.00;1.00
76304;PMS7003;65111;50.536;19.204;2023-04-25T10:56:31;1.00;1.00;-0.50
76304;PMS7003;65111;50.536;19.204;2023-04-25T10:59:13;2.00;2.00;1.00
76304;PMS7003;65111;50.536;19.204;2023-04-25T11:01:42;1.00;1.00;1.00
76304;PMS7003;65111;50.536;19.204;2023-04-25T11:04:19;1.00;1.00;1.00
76304;PMS7003;65111;50.536;19.204;2023-04-25T11:10:03;1.50;1.00;1.00
76304;PMS7003;65111;50.536;19.204;2023-04-25T11:12:31;1.33;0.67;0.00
76304;PMS7003;65111;50.536;19.204;2023-04-25T11:15:01;3.00;2.00;2.00
76304;PMS7003;65111;50.536;19.204;2023-04-25T11:17:31;1.00;1.00;1.00
76304;PMS7003;65111;50.536;19.204;2023-04-25T11:19:58;0.50;0.50;0.50
76304;PMS7003;65111;50.536;19.204;2023-04-25T11:22:26;1.00;1.00;1.00
76304;PMS7003;65111;50.536;19.204;2023-04-25T11:24:53;1.33;1.00;1.00
76304;PMS7003;65111;50.536;19.204;2023-04-25T11:27:19;0.00;0.00;0.00
76304;PMS7003;65111;50.536;19.204;2023-04-25T11:29:46;1.00;1.00;1.00
76304;PMS7003;65111;50.536;19.204;2023-04-25T11:32:17;1.00;1.00;1.00
76304;PMS7003;65111;50.536;19.204;2023-04-25T11:34:43;2.33;2.33;1.33
76304;PMS7003;65111;50.536;19.204;2023-04-25T11:37:10;2.50;2.50;2.00
76304;PMS7003;65111;50.536;19.204;2023-04-25T11:39:38;2.00;2.00;1.50
76304;PMS7003;65111;50.536;19.204;2023-04-25T11:42:04;2.50;2.50;2.00
76304;PMS7003;65111;50.536;19.204;2023-04-25T11:44:31;2.00;2.00;2.00
76304;PMS7003;65111;50.536;19.204;2023-04-25T11:46:57;1.00;1.00;1.00
76304;PMS7003;65111;50.536;19.204;2023-04-25T11:49:23;4.00;2.00;1.00
76304;PMS7003;65111;50.536;19.204;2023-04-25T11:51:50;2.00;2.00;2.00
76304;PMS7003;65111;50.536;19.204;2023-04-25T11:54:16;2.50;2.50;1.50
76304;PMS7003;65111;50.536;19.204;2023-04-25T11:56:42;4.00;2.00;1.33
76304;PMS7003;65111;50.536;19.204;2023-04-25T11:59:09;2.00;2.00;1.50
76304;PMS7003;65111;50.536;19.204;2023-04-25T12:01:36;2.00;2.00;1.00
76304;PMS7003;65111;50.536;19.204;2023-04-25T12:04:10;3.00;2.00;2.00
76304;PMS7003;65111;50.536;19.204;2023-04-25T12:06:41;0.50;0.50;0.50
76304;PMS7003;65111;50.536;19.204;2023-04-25T12:09:09;1.00;1.00;1.00
76304;PMS7003;65111;50.536;19.204;2023-04-25T12:14:20;3.00;3.00;2.00
76304;PMS7003;65111;50.536;19.204;2023-04-25T12:16:49;3.50;3.00;2.00
76304;PMS7003;65111;50.536;19.204;2023-04-25T12:19:17;2.00;2.00;1.50
76304;PMS7003;65111;50.536;19.204;2023-04-25T12:21:44;2.00;2.00;2.00
76304;PMS7003;65111;50.536;19.204;2023-04-25T12:29:27;4.00;4.00;2.00
76304;PMS7003;65111;50.536;19.204;2023-04-25T12:31:55;3.00;2.00;1.00
76304;PMS7003;65111;50.536;19.204;2023-04-25T12:34:22;1.00;1.00;1.00
76304;PMS7003;65111;50.536;19.204;2023-04-25T12:36:49;1.00;1.00;1.00
76304;PMS7003;65111;50.536;19.204;2023-04-25T12:39:21;2.00;2.00;1.00
76304;PMS7003;65111;50.536;19.204;2023-04-25T12:41:49;2.00;2.00;2.00
76304;PMS7003;65111;50.536;19.204;2023-04-25T12:44:17;1.00;1.00;1.00
76304;PMS7003;65111;50.536;19.204;2023-04-25T12:46:43;1.00;1.00;1.00
76304;PMS7003;65111;50.536;19.204;2023-04-25T12:49:09;1.67;1.67;1.00
76304;PMS7003;65111;50.536;19.204;2023-04-25T12:51:36;2.00;2.00;1.00
76304;PMS7003;65111;50.536;19.204;2023-04-25T12:54:03;1.00;1.00;1.00
76304;PMS7003;65111;50.536;19.204;2023-04-25T12:56:30;2.00;2.00;2.00
76304;PMS7003;65111;50.536;19.204;2023-04-25T12:58:57;1.00;1.00;1.00
76304;PMS7003;65111;50.536;19.204;2023-04-25T13:01:24;1.00;1.00;1.00
76304;PMS7003;65111;50.536;19.204;2023-04-25T13:03:53;2.00;2.00;1.00
76304;PMS7003;65111;50.536;19.204;2023-04-25T13:06:20;2.00;2.00;1.00
76304;PMS7003;65111;50.536;19.204;2023-04-25T13:11:12;2.00;2.00;1.67
76304;PMS7003;65111;50.536;19.204;2023-04-25T13:13:40;1.00;1.00;1.00
76304;PMS7003;65111;50.536;19.204;2023-04-25T13:16:06;2.00;2.00;1.00
76304;PMS7003;65111;50.536;19.204;2023-04-25T13:18:32;2.00;1.00;1.00
76304;PMS7003;65111;50.536;19.204;2023-04-25T13:20:59;0.00;0.00;0.00
76304;PMS7003;65111;50.536;19.204;2023-04-25T13:23:26;1.00;1.00;1.00
76304;PMS7003;65111;50.536;19.204;2023-04-25T13:25:54;1.00;1.00;1.00
76304;PMS7003;65111;50.536;19.204;2023-04-25T13:28:20;6.00;1.00;1.00
76304;PMS7003;65111;50.536;19.204;2023-04-25T13:30:47;1.00;1.00;0.50
76304;PMS7003;65111;50.536;19.204;2023-04-25T13:33:14;2.00;2.00;1.50
76304;PMS7003;65111;50.536;19.204;2023-04-25T13:35:41;1.50;1.50;1.00
76304;PMS7003;65111;50.536;19.204;2023-04-25T13:38:07;1.00;1.00;1.00
76304;PMS7003;65111;50.536;19.204;2023-04-25T13:40:34;1.00;1.00;1.00
76304;PMS7003;65111;50.536;19.204;2023-04-25T13:43:01;2.00;1.00;1.00
76304;PMS7003;65111;50.536;19.204;2023-04-25T13:45:27;3.00;3.00;2.50
76304;PMS7003;65111;50.536;19.204;2023-04-25T13:47:53;2.00;2.00;2.00
76304;PMS7003;65111;50.536;19.204;2023-04-25T13:50:19;1.00;1.00;1.00
76304;PMS7003;65111;50.536;19.204;2023-04-25T13:52:45;2.67;1.00;1.00
76304;PMS7003;65111;50.536;19.204;2023-04-25T13:55:12;2.50;1.00;1.00
76304;PMS7003;65111;50.536;19.204;2023-04-25T13:57:38;1.00;1.00;1.00
76304;PMS7003;65111;50.536;19.204;2023-04-25T14:00:04;1.00;1.00;1.00
76304;PMS7003;65111;50.536;19.204;2023-04-25T14:02:37;3.00;2.00;1.33
76304;PMS7003;65111;50.536;19.204;2023-04-25T14:05:04;1.00;1.00;1.00
76304;PMS7003;65111;50.536;19.204;2023-04-25T14:07:30;1.00;1.00;1.00
76304;PMS7003;65111;50.536;19.204;2023-04-25T14:09:57;1.00;1.00;1.00
76304;PMS7003;65111;50.536;19.204;2023-04-25T14:12:23;2.50;1.00;1.00
76304;PMS7003;65111;50.536;19.204;2023-04-25T14:14:50;2.00;2.00;2.00
76304;PMS7003;65111;50.536;19.204;2023-04-25T14:17:18;2.00;2.00;2.00
76304;PMS7003;65111;50.536;19.204;2023-04-25T14:19:45;2.00;2.00;1.00
76304;PMS7003;65111;50.536;19.204;2023-04-25T14:22:11;2.00;2.00;1.00
76304;PMS7003;65111;50.536;19.204;2023-04-25T14:24:37;2.00;2.00;2.00
76304;PMS7003;65111;50.536;19.204;2023-04-25T14:27:03;2.00;2.00;1.50
76304;PMS7003;65111;50.536;19.204;2023-04-25T14:29:30;1.00;1.00;1.00